createdAt,value
2019-03-10T00:01:04.579Z,7.03
2019-03-10T00:03:34.743Z,5.93
2019-03-10T00:06:04.926Z,7.10
2019-03-10T00:08:35.175Z,5.70
2019-03-10T00:11:05.368Z,5.40
2019-03-10T00:13:35.579Z,6.27
2019-03-10T00:16:05.750Z,6.40
2019-03-10T00:18:35.905Z,6.50
2019-03-10T00:21:07.228Z,6.10
2019-03-10T00:23:37.425Z,6.80
2019-03-10T00:26:07.592Z,7.03
2019-03-10T00:28:37.735Z,6.80
2019-03-10T00:31:07.899Z,7.50
2019-03-10T00:33:38.051Z,6.90
2019-03-10T00:36:08.233Z,9.53
2019-03-10T00:39:17.347Z,8.03
2019-03-10T00:42:36.587Z,8.57
2019-03-10T00:45:44.936Z,6.20
2019-03-10T00:48:42.215Z,6.50
2019-03-10T00:51:52.806Z,5.53
2019-03-10T00:54:22.977Z,7.03
2019-03-10T00:56:53.135Z,7.90
2019-03-10T00:59:24.268Z,5.40
2019-03-10T01:01:54.476Z,8.17
2019-03-10T01:04:24.692Z,6.57
2019-03-10T01:06:55.231Z,5.80
2019-03-10T01:09:25.633Z,6.87
2019-03-10T01:11:55.927Z,6.50
2019-03-10T01:14:26.104Z,5.90
2019-03-10T01:16:57.212Z,7.57
2019-03-10T01:19:28.092Z,7.20
2019-03-10T01:22:00.135Z,6.80
2019-03-10T01:24:30.324Z,6.87
2019-03-10T01:27:00.548Z,6.10
2019-03-10T01:29:30.702Z,6.90
2019-03-10T01:32:54.411Z,6.93
2019-03-10T01:35:28.519Z,5.80
2019-03-10T01:37:58.708Z,7.10
2019-03-10T01:40:28.842Z,6.33
2019-03-10T01:42:58.998Z,7.30
2019-03-10T01:45:29.156Z,6.50
2019-03-10T01:47:59.518Z,6.00
2019-03-10T01:50:29.971Z,5.87
2019-03-10T01:53:00.214Z,5.90
2019-03-10T01:55:30.395Z,5.87
2019-03-10T01:58:19.490Z,5.93
2019-03-10T02:00:49.203Z,8.10
2019-03-10T02:03:20.751Z,6.40
2019-03-10T02:05:51.022Z,6.90
2019-03-10T02:08:21.405Z,6.50
2019-03-10T02:10:51.548Z,5.30
2019-03-10T02:13:21.731Z,7.00
2019-03-10T02:15:53.227Z,7.70
2019-03-10T02:18:23.671Z,6.30
2019-03-10T02:20:53.826Z,6.40
2019-03-10T02:23:23.978Z,6.10
2019-03-10T02:25:54.120Z,6.23
2019-03-10T02:28:24.464Z,6.23
2019-03-10T02:30:54.644Z,5.90
2019-03-10T02:33:24.814Z,7.17
2019-03-10T02:35:55.028Z,6.40
2019-03-10T02:38:25.325Z,4.33
2019-03-10T02:40:55.633Z,6.97
2019-03-10T02:43:25.887Z,6.13
2019-03-10T02:45:56.027Z,6.50
2019-03-10T02:48:26.183Z,6.23
2019-03-10T02:50:56.332Z,6.83
2019-03-10T02:53:26.471Z,6.97
2019-03-10T02:55:56.645Z,5.47
2019-03-10T02:58:26.852Z,5.67
2019-03-10T03:00:56.980Z,5.90
2019-03-10T03:03:27.146Z,6.93
2019-03-10T03:05:57.392Z,6.70
2019-03-10T03:08:27.591Z,6.10
2019-03-10T03:10:57.772Z,7.03
2019-03-10T03:13:28.006Z,5.57
2019-03-10T03:15:58.139Z,6.90
2019-03-10T03:18:28.292Z,6.03
2019-03-10T03:20:58.416Z,7.13
2019-03-10T03:23:28.589Z,7.80
2019-03-10T03:25:58.738Z,5.93
2019-03-10T03:28:28.901Z,6.67
2019-03-10T03:30:59.049Z,7.30
2019-03-10T03:33:29.344Z,6.30
2019-03-10T03:36:26.674Z,7.43
2019-03-10T03:39:18.939Z,7.63
2019-03-10T03:41:49.235Z,7.50
2019-03-10T03:44:19.397Z,5.30
2019-03-10T03:46:49.528Z,5.57
2019-03-10T03:49:19.704Z,5.63
2019-03-10T03:51:49.851Z,4.93
2019-03-10T03:54:20.005Z,7.57
2019-03-10T03:56:50.220Z,4.30
2019-03-10T03:59:20.503Z,6.27
2019-03-10T04:02:09.648Z,4.90
2019-03-10T04:04:40.902Z,6.00
2019-03-10T04:07:11.033Z,7.07
2019-03-10T04:09:41.260Z,5.97
2019-03-10T04:12:11.508Z,5.70
2019-03-10T04:14:41.660Z,5.43
2019-03-10T04:17:11.795Z,4.40
2019-03-10T04:19:41.951Z,4.87
2019-03-10T04:22:12.088Z,6.20
2019-03-10T04:24:42.255Z,5.07
2019-03-10T04:27:12.409Z,5.10
2019-03-10T04:29:42.544Z,5.50
2019-03-10T04:32:12.682Z,5.03
2019-03-10T04:34:42.828Z,4.17
2019-03-10T04:37:12.973Z,5.87
2019-03-10T04:39:43.135Z,5.00
2019-03-10T04:42:13.279Z,5.80
2019-03-10T04:44:43.454Z,5.50
2019-03-10T04:47:13.756Z,4.63
2019-03-10T04:49:44.974Z,5.43
2019-03-10T04:52:15.116Z,4.70
2019-03-10T04:55:02.864Z,5.30
2019-03-10T04:57:33.000Z,5.90
2019-03-10T05:00:03.168Z,5.73
2019-03-10T05:02:33.300Z,5.10
2019-03-10T05:05:03.461Z,5.50
2019-03-10T05:07:33.583Z,5.43
2019-03-10T05:10:03.963Z,4.80
2019-03-10T05:12:34.115Z,5.07
2019-03-10T05:15:04.307Z,4.23
2019-03-10T05:17:35.574Z,4.73
2019-03-10T05:20:06.031Z,4.40
2019-03-10T05:22:36.169Z,5.13
2019-03-10T05:25:06.598Z,5.53
2019-03-10T05:27:36.764Z,5.47
2019-03-10T05:30:07.367Z,4.57
2019-03-10T05:32:38.583Z,4.10
2019-03-10T05:35:08.740Z,4.03
2019-03-10T05:37:39.945Z,4.50
2019-03-10T05:40:10.097Z,5.90
2019-03-10T05:42:40.239Z,6.80
2019-03-10T05:45:10.511Z,3.93
2019-03-10T05:47:40.666Z,3.57
2019-03-10T05:50:10.887Z,3.80
2019-03-10T05:52:41.023Z,4.50
2019-03-10T05:55:11.179Z,3.97
2019-03-10T05:57:41.321Z,4.60
2019-03-10T06:00:11.472Z,3.77
2019-03-10T06:02:41.673Z,4.00
2019-03-10T06:05:11.829Z,3.37
2019-03-10T06:07:41.981Z,4.90
2019-03-10T06:10:12.335Z,3.40
2019-03-10T06:12:42.495Z,3.80
2019-03-10T06:15:12.779Z,4.30
2019-03-10T06:17:42.914Z,4.00
2019-03-10T06:20:13.285Z,4.43
2019-03-10T06:22:43.415Z,4.17
2019-03-10T06:25:13.570Z,4.13
2019-03-10T06:27:43.704Z,3.10
2019-03-10T06:30:14.077Z,4.33
2019-03-10T06:32:44.231Z,4.07
2019-03-10T06:35:14.383Z,3.07
2019-03-10T06:37:44.521Z,3.47
2019-03-10T06:40:14.936Z,3.90
2019-03-10T06:42:45.100Z,4.70
2019-03-10T06:45:15.263Z,4.33
2019-03-10T06:47:45.430Z,3.50
2019-03-10T06:50:15.606Z,3.87
2019-03-10T06:52:45.791Z,3.80
2019-03-10T06:55:15.947Z,3.43
2019-03-10T06:57:46.131Z,3.53
2019-03-10T07:00:17.681Z,4.40
2019-03-10T07:02:48.110Z,3.10
2019-03-10T07:05:18.245Z,3.40
2019-03-10T07:07:48.400Z,2.80
2019-03-10T07:10:18.561Z,2.70
2019-03-10T07:12:48.753Z,2.57
2019-03-10T07:15:18.919Z,3.30
2019-03-10T07:17:49.069Z,3.30
2019-03-10T07:20:19.226Z,3.53
2019-03-10T07:22:49.455Z,2.93
2019-03-10T07:25:19.596Z,3.27
2019-03-10T07:28:07.308Z,3.73
2019-03-10T07:30:59.548Z,4.90
2019-03-10T07:33:35.415Z,3.93
2019-03-10T07:36:13.331Z,5.03
2019-03-10T07:38:49.385Z,6.60
2019-03-10T07:41:27.503Z,6.27
2019-03-10T07:44:05.219Z,5.93
2019-03-10T07:46:46.669Z,6.67
2019-03-10T07:49:22.717Z,7.97
2019-03-10T07:52:08.087Z,6.83
2019-03-10T07:55:03.255Z,7.67
2019-03-10T07:57:41.203Z,7.23
2019-03-10T08:00:37.168Z,8.00
2019-03-10T08:03:45.991Z,7.70
2019-03-10T08:06:53.732Z,6.83
2019-03-10T08:09:45.803Z,7.53
2019-03-10T08:12:35.019Z,8.30
2019-03-10T08:15:31.395Z,8.97
2019-03-10T08:18:16.375Z,7.90
2019-03-10T08:21:17.841Z,9.50
2019-03-10T08:24:13.027Z,8.17
2019-03-10T08:26:55.909Z,8.37
2019-03-10T08:29:44.197Z,8.00
2019-03-10T08:32:51.708Z,7.67
2019-03-10T08:35:38.263Z,7.87
2019-03-10T08:38:27.413Z,8.90
2019-03-10T08:41:22.311Z,8.10
2019-03-10T08:44:00.459Z,8.40
2019-03-10T08:46:58.536Z,8.00
2019-03-10T08:49:54.964Z,8.60
2019-03-10T08:52:35.027Z,7.90
2019-03-10T08:55:14.551Z,8.43
2019-03-10T08:58:06.446Z,8.87
2019-03-10T09:00:42.529Z,8.53
2019-03-10T09:03:31.303Z,7.80
2019-03-10T09:06:38.591Z,7.20
2019-03-10T09:09:28.881Z,6.83
2019-03-10T09:12:18.760Z,6.67
2019-03-10T09:14:56.660Z,6.40
2019-03-10T09:17:48.552Z,6.20
2019-03-10T09:20:34.915Z,5.80
2019-03-10T09:23:27.369Z,4.57
2019-03-10T09:26:20.072Z,4.20
2019-03-10T09:29:12.015Z,4.23
2019-03-10T09:31:55.947Z,3.83
2019-03-10T09:34:45.060Z,3.40
2019-03-10T09:37:43.171Z,3.20
2019-03-10T09:40:32.324Z,3.03
2019-03-10T09:43:20.092Z,3.10
2019-03-10T09:45:56.356Z,2.37
2019-03-10T09:48:34.976Z,2.00
2019-03-10T09:51:22.364Z,2.10
2019-03-10T09:54:14.415Z,1.90
2019-03-10T09:57:01.332Z,2.07
2019-03-10T09:59:49.610Z,2.97
2019-03-10T10:02:53.839Z,2.13
2019-03-10T10:05:45.737Z,2.53
2019-03-10T10:08:37.991Z,1.90
2019-03-10T10:11:45.514Z,2.30
2019-03-10T10:14:43.883Z,2.03
2019-03-10T10:17:23.793Z,1.97
2019-03-10T10:20:02.160Z,2.60
2019-03-10T10:22:57.149Z,2.20
2019-03-10T10:25:39.340Z,3.03
2019-03-10T10:28:16.836Z,2.00
2019-03-10T10:31:00.928Z,2.20
2019-03-10T10:33:48.942Z,3.73
2019-03-10T10:36:44.792Z,2.60
2019-03-10T10:39:32.049Z,2.80
2019-03-10T10:42:20.791Z,2.60
2019-03-10T10:45:25.039Z,2.60
2019-03-10T10:48:12.977Z,3.50
2019-03-10T10:50:52.398Z,3.23
2019-03-10T10:53:50.827Z,3.63
2019-03-10T10:56:43.025Z,3.07
2019-03-10T10:59:38.414Z,4.50
2019-03-10T11:02:23.807Z,3.90
2019-03-10T11:05:22.263Z,2.87
2019-03-10T11:08:07.836Z,3.60
2019-03-10T11:11:12.535Z,3.13
2019-03-10T11:14:00.956Z,2.30
2019-03-10T11:16:38.632Z,3.03
2019-03-10T11:19:27.936Z,2.80
2019-03-10T11:22:10.484Z,2.93
2019-03-10T11:25:02.893Z,2.97
2019-03-10T11:28:07.203Z,3.70
2019-03-10T11:30:52.250Z,3.83
2019-03-10T11:33:32.269Z,3.93
2019-03-10T11:36:33.453Z,2.70
2019-03-10T11:39:14.296Z,3.20
2019-03-10T11:42:18.512Z,3.67
2019-03-10T11:45:19.848Z,3.40
2019-03-10T11:48:18.003Z,3.60
2019-03-10T11:51:16.099Z,3.60
2019-03-10T11:54:05.212Z,3.97
2019-03-10T11:57:00.115Z,4.40
2019-03-10T11:59:38.503Z,3.90
2019-03-10T12:02:26.638Z,5.23
2019-03-10T12:05:07.499Z,3.20
2019-03-10T12:07:57.606Z,4.50
2019-03-10T12:10:27.871Z,3.33
2019-03-10T12:12:58.103Z,2.77
2019-03-10T12:15:28.371Z,3.43
2019-03-10T12:17:58.525Z,3.80
2019-03-10T12:20:28.716Z,3.57
2019-03-10T12:22:58.865Z,3.33
2019-03-10T12:25:29.119Z,3.30
2019-03-10T12:27:59.293Z,3.10
2019-03-10T12:30:29.483Z,3.70
2019-03-10T12:32:59.650Z,2.87
2019-03-10T12:35:34.266Z,3.27
2019-03-10T12:38:01.696Z,3.40
2019-03-10T12:40:31.867Z,3.67
2019-03-10T12:43:02.034Z,3.40
2019-03-10T12:45:33.300Z,3.90
2019-03-10T12:48:03.479Z,3.87
2019-03-10T12:50:33.694Z,3.93
2019-03-10T12:53:04.041Z,4.33
2019-03-10T12:55:34.235Z,4.13
2019-03-10T12:58:04.607Z,5.40
2019-03-10T13:00:34.959Z,4.10
2019-03-10T13:03:05.263Z,4.23
2019-03-10T13:05:36.544Z,4.50
2019-03-10T13:08:07.807Z,4.07
2019-03-10T13:10:38.083Z,3.67
2019-03-10T13:13:08.306Z,3.80
2019-03-10T13:15:38.564Z,3.00
2019-03-10T13:18:08.738Z,1.93
2019-03-10T13:20:38.924Z,2.73
2019-03-10T13:23:10.150Z,2.70
2019-03-10T13:25:40.352Z,2.17
2019-03-10T13:28:10.542Z,1.90
2019-03-10T13:30:40.819Z,1.83
2019-03-10T13:33:11.039Z,1.77
2019-03-10T13:35:41.508Z,1.87
2019-03-10T13:38:11.707Z,2.17
2019-03-10T13:40:42.061Z,1.83
2019-03-10T13:43:12.276Z,1.67
2019-03-10T13:45:42.549Z,1.90
2019-03-10T13:48:13.960Z,1.60
2019-03-10T13:50:44.177Z,1.80
2019-03-10T13:53:14.443Z,1.40
2019-03-10T13:55:44.641Z,2.33
2019-03-10T13:58:14.926Z,1.57
2019-03-10T14:00:46.239Z,2.23
2019-03-10T14:03:16.555Z,1.67
2019-03-10T14:05:46.990Z,1.53
2019-03-10T14:08:17.150Z,1.30
2019-03-10T14:10:47.534Z,1.60
2019-03-10T14:13:17.737Z,1.67
2019-03-10T14:15:47.928Z,1.90
2019-03-10T14:18:18.084Z,2.20
2019-03-10T14:20:48.347Z,1.57
2019-03-10T14:23:18.536Z,1.67
2019-03-10T14:25:49.180Z,1.80
2019-03-10T14:28:22.232Z,2.33
2019-03-10T14:30:52.724Z,1.80
2019-03-10T14:33:23.007Z,1.60
2019-03-10T14:35:53.322Z,1.07
2019-03-10T14:38:23.587Z,1.87
2019-03-10T14:40:53.880Z,1.53
2019-03-10T14:43:24.043Z,1.40
2019-03-10T14:45:54.260Z,1.63
2019-03-10T14:48:24.648Z,1.40
2019-03-10T14:50:55.000Z,2.03
2019-03-10T14:53:25.251Z,1.30
2019-03-10T14:55:55.432Z,1.37
2019-03-10T14:58:27.716Z,1.30
2019-03-10T15:00:57.976Z,1.63
2019-03-10T15:03:29.128Z,1.50
2019-03-10T15:05:59.329Z,1.30
2019-03-10T15:08:30.620Z,1.50
2019-03-10T15:11:00.812Z,1.50
2019-03-10T15:13:30.987Z,1.70
2019-03-10T15:16:01.146Z,1.70
2019-03-10T15:18:31.335Z,1.43
2019-03-10T15:21:01.567Z,1.50
2019-03-10T15:23:31.860Z,1.77
2019-03-10T15:26:02.053Z,1.60
2019-03-10T15:28:32.244Z,1.60
2019-03-10T15:31:02.407Z,1.60
2019-03-10T15:33:32.680Z,1.10
2019-03-10T15:36:02.844Z,1.40
2019-03-10T15:38:33.049Z,1.00
2019-03-10T15:41:03.243Z,1.67
2019-03-10T15:43:33.477Z,0.90
2019-03-10T15:46:03.619Z,1.53
2019-03-10T15:48:33.795Z,0.80
2019-03-10T15:51:05.004Z,1.40
2019-03-10T15:53:36.375Z,1.23
2019-03-10T15:56:06.638Z,1.50
2019-03-10T15:58:36.843Z,1.23
2019-03-10T16:01:07.092Z,1.00
2019-03-10T16:03:37.366Z,0.93
2019-03-10T16:06:07.605Z,0.80
2019-03-10T16:08:37.836Z,0.80
2019-03-10T16:11:08.030Z,1.00
2019-03-10T16:13:38.220Z,0.70
2019-03-10T16:16:09.644Z,1.00
2019-03-10T16:18:39.850Z,0.70
2019-03-10T16:21:10.016Z,0.77
2019-03-10T16:23:40.234Z,0.60
2019-03-10T16:26:10.413Z,0.80
2019-03-10T16:28:40.707Z,0.70
2019-03-10T16:31:12.327Z,2.60
2019-03-10T16:33:42.627Z,0.83
2019-03-10T16:36:12.924Z,0.80
2019-03-10T16:38:43.136Z,0.93
2019-03-10T16:41:13.443Z,0.77
2019-03-10T16:43:43.616Z,0.93
2019-03-10T16:46:13.788Z,0.90
2019-03-10T16:48:43.966Z,0.90
2019-03-10T16:51:14.128Z,0.77
2019-03-10T16:53:44.327Z,0.80
2019-03-10T16:56:14.528Z,0.90
2019-03-10T16:58:44.685Z,0.90
2019-03-10T17:01:15.228Z,0.93
2019-03-10T17:03:45.424Z,0.87
2019-03-10T17:06:15.614Z,1.00
2019-03-10T17:08:45.921Z,1.17
2019-03-10T17:11:17.935Z,1.30
2019-03-10T17:13:48.168Z,1.00
2019-03-10T17:16:18.392Z,1.30
2019-03-10T17:18:48.620Z,1.20
2019-03-10T17:21:18.966Z,1.13
2019-03-10T17:23:50.123Z,1.50
2019-03-10T17:26:20.328Z,1.27
2019-03-10T17:28:50.640Z,1.40
2019-03-10T17:31:20.841Z,1.60
2019-03-10T17:33:51.796Z,1.30
2019-03-10T17:36:22.151Z,1.10
2019-03-10T17:38:52.342Z,2.43
2019-03-10T17:41:22.653Z,1.70
2019-03-10T17:43:52.822Z,1.60
2019-03-10T17:46:22.974Z,1.73
2019-03-10T17:48:53.187Z,1.80
2019-03-10T17:51:23.392Z,1.30
2019-03-10T17:53:53.583Z,4.37
2019-03-10T17:56:23.770Z,1.53
2019-03-10T17:58:56.009Z,1.57
2019-03-10T18:01:26.652Z,1.23
2019-03-10T18:03:56.875Z,1.47
2019-03-10T18:06:27.097Z,1.70
2019-03-10T18:08:57.371Z,1.50
2019-03-10T18:11:27.931Z,1.50
2019-03-10T18:13:58.125Z,1.30
2019-03-10T18:16:28.293Z,1.30
2019-03-10T18:19:00.060Z,2.10
2019-03-10T18:21:30.304Z,1.50
2019-03-10T18:24:00.637Z,1.47
2019-03-10T18:26:30.888Z,1.33
2019-03-10T18:29:01.080Z,1.60
2019-03-10T18:31:32.294Z,1.90
2019-03-10T18:34:02.475Z,1.90
2019-03-10T18:36:32.658Z,1.60
2019-03-10T18:39:04.822Z,1.70
2019-03-10T18:41:39.368Z,1.87
2019-03-10T18:44:09.658Z,1.70
2019-03-10T18:46:40.932Z,1.20
2019-03-10T18:49:11.184Z,2.70
2019-03-10T18:51:41.348Z,1.37
2019-03-10T18:54:11.568Z,0.90
2019-03-10T18:56:41.717Z,1.60
2019-03-10T18:59:11.936Z,1.50
2019-03-10T19:01:42.119Z,1.10
2019-03-10T19:04:12.311Z,1.80
2019-03-10T19:06:42.477Z,1.47
2019-03-10T19:09:12.753Z,1.60
2019-03-10T19:11:42.949Z,1.80
2019-03-10T19:14:13.128Z,1.80
2019-03-10T19:16:43.263Z,1.40
2019-03-10T19:19:14.683Z,1.70
2019-03-10T19:21:44.825Z,1.60
2019-03-10T19:24:15.065Z,1.60
2019-03-10T19:26:45.249Z,1.80
2019-03-10T19:29:15.531Z,2.07
2019-03-10T19:31:45.730Z,1.63
2019-03-10T19:34:16.029Z,1.67
2019-03-10T19:36:56.689Z,1.57
2019-03-10T19:39:18.287Z,1.87
2019-03-10T19:41:48.542Z,2.37
2019-03-10T19:44:20.977Z,1.50
2019-03-10T19:46:50.663Z,1.30
2019-03-10T19:49:21.928Z,1.80
2019-03-10T19:51:53.201Z,1.50
2019-03-10T19:54:23.560Z,1.73
2019-03-10T19:56:53.755Z,1.30
2019-03-10T19:59:24.012Z,1.70
2019-03-10T20:01:54.282Z,1.50
2019-03-10T20:04:26.272Z,1.20
2019-03-10T20:06:57.647Z,1.50
2019-03-10T20:09:27.855Z,1.70
2019-03-10T20:11:58.188Z,1.60
2019-03-10T20:14:30.760Z,1.90
2019-03-10T20:17:01.122Z,1.57
2019-03-10T20:19:32.501Z,1.60
2019-03-10T20:22:02.674Z,1.40
2019-03-10T20:24:33.072Z,1.27
2019-03-10T20:27:03.298Z,1.80
2019-03-10T20:29:34.895Z,1.43
2019-03-10T20:32:13.616Z,1.30
2019-03-10T20:34:37.237Z,1.57
2019-03-10T20:37:07.456Z,1.63
2019-03-10T20:39:37.723Z,1.73
2019-03-10T20:42:08.002Z,1.93
2019-03-10T20:44:38.160Z,1.90
2019-03-10T20:47:08.614Z,1.60
2019-03-10T20:49:38.815Z,1.90
2019-03-10T20:52:09.086Z,1.57
2019-03-10T20:54:39.408Z,2.30
2019-03-10T20:57:09.668Z,2.67
2019-03-10T20:59:39.883Z,1.80
2019-03-10T21:02:10.076Z,1.47
2019-03-10T21:04:40.327Z,1.60
2019-03-10T21:07:13.706Z,1.63
2019-03-10T21:09:44.012Z,1.63
2019-03-10T21:12:16.031Z,1.50
2019-03-10T21:14:48.346Z,3.60
2019-03-10T21:17:18.552Z,2.20
2019-03-10T21:19:48.747Z,2.13
2019-03-10T21:22:20.835Z,1.70
2019-03-10T21:24:50.867Z,1.80
2019-03-10T21:27:21.168Z,1.60
2019-03-10T21:29:51.356Z,1.80
2019-03-10T21:32:21.551Z,1.53
2019-03-10T21:34:52.343Z,1.90
2019-03-10T21:37:22.550Z,2.13
2019-03-10T21:39:54.291Z,2.23
2019-03-10T21:42:24.524Z,1.53
2019-03-10T21:44:54.709Z,1.73
2019-03-10T21:47:24.897Z,2.10
2019-03-10T21:49:55.214Z,3.00
2019-03-10T21:52:27.204Z,2.50
2019-03-10T21:54:57.356Z,2.30
2019-03-10T21:57:27.659Z,3.80
2019-03-10T21:59:57.838Z,1.93
2019-03-10T22:02:28.016Z,3.20
2019-03-10T22:04:59.328Z,1.90
2019-03-10T22:07:29.511Z,2.80
2019-03-10T22:09:59.682Z,2.03
2019-03-10T22:12:29.839Z,2.13
2019-03-10T22:14:59.991Z,2.00
2019-03-10T22:17:30.168Z,2.50
2019-03-10T22:20:00.467Z,2.00
2019-03-10T22:22:30.699Z,2.27
2019-03-10T22:25:12.193Z,3.43
2019-03-10T22:27:32.975Z,2.20
2019-03-10T22:30:03.169Z,2.53
2019-03-10T22:32:33.840Z,2.90
2019-03-10T22:35:04.119Z,1.97
2019-03-10T22:37:34.315Z,2.50
2019-03-10T22:40:04.675Z,2.43
2019-03-10T22:42:34.863Z,2.20
2019-03-10T22:45:05.401Z,2.50
2019-03-10T22:47:36.688Z,2.57
2019-03-10T22:50:07.367Z,3.47
2019-03-10T22:52:37.556Z,1.77
2019-03-10T22:55:09.152Z,2.00
2019-03-10T22:57:39.356Z,2.70
2019-03-10T23:00:14.821Z,2.50
2019-03-10T23:02:46.718Z,2.07
2019-03-10T23:05:16.874Z,2.00
2019-03-10T23:07:47.112Z,2.00
2019-03-10T23:10:17.393Z,1.83
2019-03-10T23:12:47.588Z,1.97
2019-03-10T23:15:17.756Z,2.33
2019-03-10T23:17:47.984Z,2.43
2019-03-10T23:20:18.146Z,2.10
2019-03-10T23:22:48.296Z,1.77
2019-03-10T23:25:18.465Z,1.60
2019-03-10T23:27:48.648Z,2.10
2019-03-10T23:30:18.935Z,2.23
2019-03-10T23:32:49.128Z,1.93
2019-03-10T23:35:19.257Z,2.50
2019-03-10T23:37:49.444Z,2.80
2019-03-10T23:40:19.579Z,3.07
2019-03-10T23:42:49.867Z,2.23
2019-03-10T23:45:20.108Z,1.60
2019-03-10T23:47:51.756Z,2.63
2019-03-10T23:50:21.932Z,2.77
2019-03-10T23:52:52.083Z,2.20
2019-03-10T23:55:22.211Z,2.63
2019-03-10T23:57:52.380Z,2.57
